Terminal Aerodrome Forecast
Issued by NWS

Home | Current Version | Previous Version | Text Only | Print | Product List | Glossary On
Versions: 1 2 3 4 5 6 7 8 9 10 11 12 13 14 15 16 17 18 19
000
FTUS46 KSTO 011600 AAC
TAFSMF
TAF AMD
KSMF 011609Z 0116/0212 31006KT 4SM BR BKN150 BKN250
      TEMPO 0117/0119 6SM BR
     FM011900 32007KT P6SM BKN250
     FM020800 00000KT 4SM BR OVC250=

USA.gov is the U.S. government's official web portal to all federal, state and local government web resources and services.